createdAt,value
2023-04-11T00:01:51.628Z,99.90
2023-04-11T00:04:18.277Z,99.90
2023-04-11T00:06:44.891Z,99.90
2023-04-11T00:09:11.501Z,99.90
2023-04-11T00:11:38.091Z,99.90
2023-04-11T00:14:04.684Z,99.90
2023-04-11T00:16:31.322Z,99.90
2023-04-11T00:18:58.069Z,99.90
2023-04-11T00:21:24.689Z,99.90
2023-04-11T00:23:51.560Z,99.90
2023-04-11T00:26:18.118Z,99.90
2023-04-11T00:28:44.972Z,99.90
2023-04-11T00:31:11.533Z,99.90
2023-04-11T00:33:39.884Z,99.90
2023-04-11T00:36:07.479Z,99.90
2023-04-11T00:38:34.119Z,99.90
2023-04-11T00:41:00.754Z,99.90
2023-04-11T00:43:27.361Z,99.90
2023-04-11T00:45:53.960Z,99.90
2023-04-11T00:48:21.139Z,99.90
2023-04-11T00:50:47.740Z,99.90
2023-04-11T00:53:14.272Z,99.90
2023-04-11T00:55:40.837Z,99.90
2023-04-11T00:58:07.537Z,99.90
2023-04-11T01:00:34.108Z,99.90
2023-04-11T01:03:00.781Z,99.90
2023-04-11T01:05:27.481Z,99.90
2023-04-11T01:07:54.105Z,99.90
2023-04-11T01:10:20.677Z,99.90
2023-04-11T01:12:47.289Z,99.90
2023-04-11T01:15:13.858Z,99.90
2023-04-11T01:17:40.435Z,99.90
2023-04-11T01:20:07.039Z,99.90
2023-04-11T01:22:33.646Z,99.90
2023-04-11T01:25:00.227Z,99.90
2023-04-11T01:27:26.791Z,99.90
2023-04-11T01:29:53.348Z,99.90
2023-04-11T01:32:20.049Z,99.90
2023-04-11T01:34:46.613Z,99.90
2023-04-11T01:37:13.278Z,99.90
2023-04-11T01:39:39.935Z,99.90
2023-04-11T01:42:06.484Z,99.90
2023-04-11T01:44:33.245Z,99.90
2023-04-11T01:46:59.871Z,99.90
2023-04-11T01:49:26.425Z,99.90
2023-04-11T01:51:53.007Z,99.90
2023-04-11T01:54:19.607Z,99.90
2023-04-11T01:56:46.256Z,99.90
2023-04-11T01:59:12.916Z,99.90
2023-04-11T02:01:39.632Z,99.90
2023-04-11T02:04:06.323Z,99.90
2023-04-11T02:06:32.917Z,99.90
2023-04-11T02:08:59.465Z,99.90
2023-04-11T02:11:26.045Z,99.90
2023-04-11T02:13:52.648Z,99.90
2023-04-11T02:16:19.308Z,99.90
2023-04-11T02:18:45.930Z,99.90
2023-04-11T02:21:12.570Z,99.90
2023-04-11T02:23:39.363Z,99.90
2023-04-11T02:26:05.921Z,99.90
2023-04-11T02:28:32.548Z,99.90
2023-04-11T02:30:59.197Z,99.90
2023-04-11T02:33:25.797Z,99.90
2023-04-11T02:35:52.347Z,99.90
2023-04-11T02:38:19.037Z,99.90
2023-04-11T02:40:45.569Z,99.90
2023-04-11T02:43:12.134Z,99.90
2023-04-11T02:45:38.657Z,99.90
2023-04-11T02:48:05.257Z,99.90
2023-04-11T02:50:31.866Z,99.90
2023-04-11T02:52:58.415Z,99.90
2023-04-11T02:55:24.987Z,99.90
2023-04-11T02:57:51.531Z,99.90
2023-04-11T03:00:18.155Z,99.90
2023-04-11T03:02:44.776Z,99.90
2023-04-11T03:05:11.398Z,99.90
2023-04-11T03:07:37.955Z,99.90
2023-04-11T03:10:04.582Z,99.90
2023-04-11T03:12:31.117Z,99.90
2023-04-11T03:14:57.680Z,99.90
2023-04-11T03:17:24.329Z,99.90
2023-04-11T03:19:50.907Z,99.90
2023-04-11T03:22:17.501Z,99.90
2023-04-11T03:24:44.048Z,99.90
2023-04-11T03:27:10.697Z,99.90
2023-04-11T03:29:37.361Z,99.90
2023-04-11T03:32:04.088Z,99.90
2023-04-11T03:34:30.697Z,99.90
2023-04-11T03:36:57.269Z,99.90
2023-04-11T03:39:23.860Z,99.90
2023-04-11T03:41:50.440Z,99.90
2023-04-11T03:44:17.013Z,99.90
2023-04-11T03:46:43.615Z,99.90
2023-04-11T03:49:10.873Z,99.90
2023-04-11T03:51:37.449Z,99.90
2023-04-11T03:54:04.055Z,99.90
2023-04-11T03:56:32.915Z,99.90
2023-04-11T03:58:59.562Z,99.90
2023-04-11T04:01:26.137Z,99.90
2023-04-11T04:03:52.963Z,99.90
2023-04-11T04:06:21.713Z,99.90
2023-04-11T04:08:48.305Z,99.90
2023-04-11T04:11:14.908Z,99.90
2023-04-11T04:13:41.447Z,99.90
2023-04-11T04:16:08.089Z,99.90
2023-04-11T04:18:34.689Z,99.90
2023-04-11T04:21:02.144Z,99.90
2023-04-11T04:23:28.715Z,99.90
2023-04-11T04:25:55.267Z,99.90
2023-04-11T04:28:21.907Z,99.90
2023-04-11T04:30:48.529Z,99.90
2023-04-11T04:33:15.245Z,99.90
2023-04-11T04:35:41.841Z,99.90
2023-04-11T04:38:08.451Z,99.90
2023-04-11T04:40:35.026Z,99.90
2023-04-11T04:43:01.617Z,99.90
2023-04-11T04:45:28.211Z,99.90
2023-04-11T04:47:54.831Z,99.90
2023-04-11T04:50:21.444Z,99.90
2023-04-11T04:52:48.007Z,99.90
2023-04-11T04:55:14.667Z,99.90
2023-04-11T04:57:41.203Z,99.90
2023-04-11T05:00:07.771Z,99.90
2023-04-11T05:02:34.424Z,99.90
2023-04-11T05:05:01.096Z,99.90
2023-04-11T05:07:27.647Z,99.90
2023-04-11T05:09:55.337Z,99.90
2023-04-11T05:12:21.973Z,99.90
2023-04-11T05:14:48.515Z,99.90
2023-04-11T05:17:15.071Z,99.90
2023-04-11T05:19:41.645Z,99.90
2023-04-11T05:22:08.284Z,99.90
2023-04-11T05:24:34.879Z,99.90
2023-04-11T05:27:01.538Z,99.90
2023-04-11T05:29:28.498Z,99.90
2023-04-11T05:31:55.065Z,99.90
2023-04-11T05:34:21.669Z,99.90
2023-04-11T05:36:48.216Z,99.90
2023-04-11T05:39:14.860Z,99.90
2023-04-11T05:41:41.433Z,99.90
2023-04-11T05:44:08.004Z,99.90
2023-04-11T05:46:34.753Z,99.90
2023-04-11T05:49:01.463Z,99.90
2023-04-11T05:51:28.013Z,99.90
2023-04-11T05:53:54.928Z,99.90
2023-04-11T05:56:21.738Z,99.90
2023-04-11T05:58:48.333Z,99.90
2023-04-11T06:01:14.900Z,99.90
2023-04-11T06:03:41.662Z,99.90
2023-04-11T06:06:08.390Z,99.90
2023-04-11T06:08:34.929Z,99.90
2023-04-11T06:11:01.536Z,99.90
2023-04-11T06:13:28.094Z,99.90
2023-04-11T06:15:54.667Z,99.90
2023-04-11T06:18:21.272Z,99.90
2023-04-11T06:20:47.826Z,99.90
2023-04-11T06:23:14.414Z,99.90
2023-04-11T06:25:41.539Z,99.90
2023-04-11T06:28:08.104Z,99.90
2023-04-11T06:30:34.682Z,99.90
2023-04-11T06:33:01.313Z,99.90
2023-04-11T06:35:27.946Z,99.90
2023-04-11T06:37:54.532Z,99.90
2023-04-11T06:40:21.112Z,99.90
2023-04-11T06:42:47.690Z,99.90
2023-04-11T06:45:14.238Z,99.90
2023-04-11T06:47:40.914Z,99.90
2023-04-11T06:50:07.538Z,99.90
2023-04-11T06:52:34.117Z,99.90
2023-04-11T06:55:00.703Z,99.90
2023-04-11T06:57:27.309Z,99.90
2023-04-11T06:59:53.867Z,99.90
2023-04-11T07:02:20.589Z,99.90
2023-04-11T07:04:47.258Z,99.90
2023-04-11T07:07:13.968Z,99.90
2023-04-11T07:09:40.583Z,99.90
2023-04-11T07:12:07.177Z,99.90
2023-04-11T07:14:33.756Z,99.90
2023-04-11T07:17:00.353Z,99.90
2023-04-11T07:19:26.947Z,99.90
2023-04-11T07:21:53.553Z,99.90
2023-04-11T07:24:20.153Z,99.90
2023-04-11T07:26:46.911Z,99.90
2023-04-11T07:29:14.859Z,99.90
2023-04-11T07:31:41.691Z,99.90
2023-04-11T07:34:08.296Z,99.90
2023-04-11T07:36:34.984Z,99.90
2023-04-11T07:39:01.624Z,99.90
2023-04-11T07:41:28.207Z,99.90
2023-04-11T07:43:55.050Z,99.90
2023-04-11T07:46:21.732Z,99.90
2023-04-11T07:48:48.349Z,99.90
2023-04-11T07:51:14.909Z,99.90
2023-04-11T07:53:41.477Z,99.90
2023-04-11T07:56:08.095Z,99.90
2023-04-11T07:58:34.657Z,99.90
2023-04-11T08:01:01.636Z,99.90
2023-04-11T08:03:28.468Z,99.90
2023-04-11T08:05:55.231Z,99.90
2023-04-11T08:08:21.820Z,99.90
2023-04-11T08:10:50.652Z,99.90
2023-04-11T08:13:18.884Z,99.90
2023-04-11T08:15:45.476Z,99.60
2023-04-11T08:18:12.366Z,99.80
2023-04-11T08:20:39.149Z,99.90
2023-04-11T08:23:05.990Z,99.90
2023-04-11T08:25:32.623Z,99.00
2023-04-11T08:27:59.276Z,99.70
2023-04-11T08:30:25.950Z,98.80
2023-04-11T08:32:52.636Z,98.90
2023-04-11T08:35:19.317Z,99.00
2023-04-11T08:37:45.983Z,98.80
2023-04-11T08:40:12.659Z,99.40
2023-04-11T08:42:39.262Z,99.20
2023-04-11T08:45:05.849Z,99.60
2023-04-11T08:47:32.460Z,99.80
2023-04-11T08:49:59.072Z,99.80
2023-04-11T08:52:25.648Z,99.80
2023-04-11T08:54:52.246Z,99.20
2023-04-11T08:57:18.814Z,99.10
2023-04-11T08:59:45.373Z,98.50
2023-04-11T09:02:12.107Z,98.50
2023-04-11T09:04:38.864Z,98.30
2023-04-11T09:07:05.455Z,98.40
2023-04-11T09:09:32.177Z,97.90
2023-04-11T09:11:58.795Z,97.70
2023-04-11T09:14:25.373Z,98.00
2023-04-11T09:16:52.000Z,96.50
2023-04-11T09:19:18.931Z,97.30
2023-04-11T09:21:45.529Z,97.60
2023-04-11T09:24:12.444Z,97.60
2023-04-11T09:26:39.035Z,96.90
2023-04-11T09:29:05.603Z,97.30
2023-04-11T09:31:32.196Z,97.80
2023-04-11T09:33:59.405Z,97.70
2023-04-11T09:36:26.190Z,97.60
2023-04-11T09:38:52.766Z,96.40
2023-04-11T09:41:19.305Z,95.80
2023-04-11T09:43:45.902Z,96.20
2023-04-11T09:46:12.475Z,96.90
2023-04-11T09:48:46.628Z,96.80
2023-04-11T09:51:18.055Z,96.00
2023-04-11T09:53:47.589Z,95.90
2023-04-11T09:56:14.194Z,96.00
2023-04-11T09:58:40.849Z,95.80
2023-04-11T10:01:07.410Z,95.20
2023-04-11T10:03:36.037Z,94.70
2023-04-11T10:06:02.637Z,95.70
2023-04-11T10:08:29.549Z,95.40
2023-04-11T10:10:56.154Z,95.30
2023-04-11T10:13:22.727Z,95.10
2023-04-11T10:15:49.362Z,95.00
2023-04-11T10:18:15.930Z,95.10
2023-04-11T10:20:42.531Z,95.30
2023-04-11T10:23:09.069Z,93.70
2023-04-11T10:25:35.707Z,94.50
2023-04-11T10:28:02.284Z,94.90
2023-04-11T10:30:28.874Z,96.10
2023-04-11T10:32:55.534Z,96.70
2023-04-11T10:35:22.072Z,97.30
2023-04-11T10:37:48.654Z,96.60
2023-04-11T10:40:15.213Z,97.80
2023-04-11T10:42:41.828Z,97.00
2023-04-11T10:45:08.522Z,96.20
2023-04-11T10:47:35.102Z,96.50
2023-04-11T10:50:01.688Z,97.20
2023-04-11T10:52:28.349Z,97.30
2023-04-11T10:54:55.240Z,96.80
2023-04-11T10:57:21.836Z,97.10
2023-04-11T10:59:48.397Z,95.50
2023-04-11T11:02:15.214Z,96.30
2023-04-11T11:04:41.904Z,94.00
2023-04-11T11:07:08.645Z,94.40
2023-04-11T11:09:35.254Z,94.20
2023-04-11T11:12:01.824Z,93.00
2023-04-11T11:14:28.430Z,94.10
2023-04-11T11:16:55.025Z,93.10
2023-04-11T11:19:21.644Z,93.10
2023-04-11T11:21:48.209Z,93.70
2023-04-11T11:24:14.791Z,95.50
2023-04-11T11:26:41.379Z,92.80
2023-04-11T11:29:07.990Z,94.00
2023-04-11T11:31:34.650Z,92.00
2023-04-11T11:34:18.393Z,91.30
2023-04-11T11:36:47.827Z,91.70
2023-04-11T11:39:14.455Z,93.70
2023-04-11T11:41:41.034Z,92.40
2023-04-11T11:44:07.656Z,94.90
2023-04-11T11:46:34.299Z,92.90
2023-04-11T11:49:01.216Z,94.80
2023-04-11T11:51:28.069Z,91.90
2023-04-11T11:53:54.717Z,91.50
2023-04-11T11:56:21.263Z,92.80
2023-04-11T11:58:48.010Z,92.60
2023-04-11T12:03:46.411Z,92.90
2023-04-11T12:06:13.063Z,92.50
2023-04-11T12:08:39.653Z,91.30
2023-04-11T12:11:06.431Z,90.80
2023-04-11T12:13:33.328Z,92.00
2023-04-11T12:15:59.941Z,92.70
2023-04-11T12:18:26.603Z,91.10
2023-04-11T12:20:53.270Z,90.80
2023-04-11T12:23:19.839Z,90.30
2023-04-11T12:25:46.428Z,91.00
2023-04-11T12:28:13.058Z,91.80
2023-04-11T12:30:39.622Z,90.20
2023-04-11T12:33:06.433Z,90.70
2023-04-11T12:35:33.122Z,88.90
2023-04-11T12:37:59.686Z,90.50
2023-04-11T12:40:26.598Z,88.40
2023-04-11T12:42:57.320Z,84.80
2023-04-11T12:45:24.182Z,86.40
2023-04-11T12:47:50.784Z,84.90
2023-04-11T12:50:17.447Z,86.90
2023-04-11T12:52:44.076Z,85.30
2023-04-11T12:55:10.653Z,85.10
2023-04-11T12:57:37.241Z,84.70
2023-04-11T13:00:03.834Z,86.20
2023-04-11T13:02:38.181Z,87.20
2023-04-11T13:05:09.302Z,84.20
2023-04-11T13:07:36.000Z,89.40
2023-04-11T13:10:02.628Z,86.60
2023-04-11T13:12:30.419Z,84.60
2023-04-11T13:14:56.980Z,85.90
2023-04-11T13:17:23.578Z,84.70
2023-04-11T13:19:50.134Z,86.10
2023-04-11T13:22:16.721Z,80.50
2023-04-11T13:24:43.351Z,78.20
2023-04-11T13:27:09.927Z,80.90
2023-04-11T13:29:36.475Z,83.70
2023-04-11T13:32:03.122Z,85.50
2023-04-11T13:34:29.732Z,82.30
2023-04-11T13:36:56.280Z,84.50
2023-04-11T13:39:22.835Z,83.80
2023-04-11T13:41:49.387Z,85.10
2023-04-11T13:44:15.973Z,82.30
2023-04-11T13:46:42.653Z,85.50
2023-04-11T13:49:09.200Z,85.50
2023-04-11T13:51:35.758Z,84.70
2023-04-11T13:54:02.376Z,86.20
2023-04-11T13:56:28.937Z,85.40
2023-04-11T13:58:55.853Z,86.60
2023-04-11T14:01:22.670Z,87.10
2023-04-11T14:03:49.703Z,83.60
2023-04-11T14:06:16.449Z,83.60
2023-04-11T14:08:43.173Z,83.70
2023-04-11T14:11:09.896Z,82.20
2023-04-11T14:13:36.667Z,84.00
2023-04-11T14:16:12.286Z,85.90
2023-04-11T14:18:38.930Z,82.40
2023-04-11T14:21:05.716Z,85.20
2023-04-11T14:23:32.327Z,85.00
2023-04-11T14:25:58.888Z,83.00
2023-04-11T14:28:26.992Z,82.90
2023-04-11T14:30:54.054Z,80.10
2023-04-11T14:33:20.833Z,82.90
2023-04-11T14:35:47.457Z,83.60
2023-04-11T14:38:14.000Z,85.40
2023-04-11T14:40:40.561Z,86.10
2023-04-11T14:43:07.142Z,85.70
2023-04-11T14:45:33.721Z,86.50
2023-04-11T14:48:00.359Z,85.50
2023-04-11T14:50:28.963Z,86.50
2023-04-11T14:52:55.769Z,88.00
2023-04-11T14:55:22.437Z,89.10
2023-04-11T14:57:49.161Z,88.30
2023-04-11T15:00:15.719Z,87.10
2023-04-11T15:02:42.505Z,86.90
2023-04-11T15:05:09.095Z,89.10
2023-04-11T15:07:35.711Z,90.90
2023-04-11T15:10:02.320Z,91.90
2023-04-11T15:12:28.888Z,90.10
2023-04-11T15:14:55.527Z,88.90
2023-04-11T15:17:22.122Z,87.60
2023-04-11T15:19:48.750Z,87.90
2023-04-11T15:22:15.314Z,88.60
2023-04-11T15:24:42.012Z,87.50
2023-04-11T15:27:08.570Z,88.70
2023-04-11T15:29:37.419Z,89.40
2023-04-11T15:32:03.983Z,87.80
2023-04-11T15:34:30.530Z,88.70
2023-04-11T15:36:57.091Z,88.70
2023-04-11T15:39:23.687Z,90.00
2023-04-11T15:41:50.649Z,90.00
2023-04-11T15:44:17.287Z,90.30
2023-04-11T15:46:45.006Z,90.90
2023-04-11T15:49:12.599Z,91.20
2023-04-11T15:51:39.211Z,91.90
2023-04-11T15:54:05.820Z,91.80
2023-04-11T15:56:32.488Z,92.30
2023-04-11T15:58:59.042Z,92.10
2023-04-11T16:01:25.720Z,93.20
2023-04-11T16:03:52.496Z,93.90
2023-04-11T16:06:19.181Z,94.10
2023-04-11T16:08:45.746Z,94.50
2023-04-11T16:11:12.315Z,95.60
2023-04-11T16:13:38.871Z,95.70
2023-04-11T16:16:05.468Z,96.30
2023-04-11T16:18:32.092Z,96.70
2023-04-11T16:20:58.654Z,97.40
2023-04-11T16:23:25.190Z,98.10
2023-04-11T16:25:52.042Z,97.80
2023-04-11T16:28:18.707Z,97.00
2023-04-11T16:30:45.321Z,95.90
2023-04-11T16:33:11.876Z,95.80
2023-04-11T16:35:38.519Z,95.90
2023-04-11T16:38:05.111Z,95.60
2023-04-11T16:40:31.718Z,95.10
2023-04-11T16:42:58.298Z,94.50
2023-04-11T16:45:24.911Z,94.10
2023-04-11T16:47:51.565Z,93.20
2023-04-11T16:50:18.158Z,93.90
2023-04-11T16:52:44.768Z,94.40
2023-04-11T16:55:11.316Z,94.70
2023-04-11T16:57:37.883Z,94.90
2023-04-11T17:00:04.530Z,94.70
2023-04-11T17:02:31.268Z,92.50
2023-04-11T17:04:58.293Z,93.40
2023-04-11T17:07:24.848Z,92.20
2023-04-11T17:09:51.427Z,90.80
2023-04-11T17:12:17.981Z,90.20
2023-04-11T17:14:44.628Z,88.20
2023-04-11T17:17:11.300Z,86.50
2023-04-11T17:19:38.017Z,84.00
2023-04-11T17:22:04.620Z,82.70
2023-04-11T17:24:31.349Z,84.20
2023-04-11T17:26:57.930Z,84.50
2023-04-11T17:29:24.533Z,82.10
2023-04-11T17:31:51.115Z,83.70
2023-04-11T17:34:17.657Z,83.40
2023-04-11T17:36:44.221Z,82.80
2023-04-11T17:39:10.816Z,81.20
2023-04-11T17:41:37.381Z,82.30
2023-04-11T17:44:03.934Z,81.80
2023-04-11T17:46:30.531Z,81.40
2023-04-11T17:48:57.170Z,82.80
2023-04-11T17:51:23.733Z,81.40
2023-04-11T17:53:50.287Z,81.10
2023-04-11T17:56:16.867Z,81.70
2023-04-11T17:58:44.291Z,82.20
2023-04-11T18:01:10.960Z,81.20
2023-04-11T18:03:37.796Z,81.40
2023-04-11T18:06:04.570Z,85.10
2023-04-11T18:08:49.044Z,84.60
2023-04-11T18:11:16.781Z,83.80
2023-04-11T18:13:43.336Z,82.70
2023-04-11T18:16:09.944Z,83.60
2023-04-11T18:18:36.506Z,86.40
2023-04-11T18:21:04.930Z,85.40
2023-04-11T18:23:33.793Z,84.90
2023-04-11T18:26:00.386Z,88.00
2023-04-11T18:28:26.942Z,88.70
2023-04-11T18:30:53.593Z,87.90
2023-04-11T18:33:20.857Z,89.20
2023-04-11T18:35:47.680Z,88.90
2023-04-11T18:38:14.310Z,87.40
2023-04-11T18:40:40.922Z,90.10
2023-04-11T18:43:07.592Z,88.80
2023-04-11T18:45:34.196Z,89.40
2023-04-11T18:48:00.912Z,90.90
2023-04-11T18:50:27.671Z,90.20
2023-04-11T18:52:56.657Z,87.30
2023-04-11T18:55:26.695Z,89.10
2023-04-11T18:57:57.313Z,89.40
2023-04-11T19:00:25.877Z,88.60
2023-04-11T19:02:52.814Z,87.80
2023-04-11T19:05:19.660Z,89.60
2023-04-11T19:07:46.324Z,90.00
2023-04-11T19:10:12.923Z,89.60
2023-04-11T19:12:39.495Z,89.70
2023-04-11T19:15:06.051Z,89.30
2023-04-11T19:17:32.740Z,90.00
2023-04-11T19:19:59.337Z,89.80
2023-04-11T19:22:25.908Z,90.00
2023-04-11T19:24:55.442Z,89.80
2023-04-11T19:27:23.212Z,90.10
2023-04-11T19:29:52.095Z,90.00
2023-04-11T19:32:18.789Z,87.90
2023-04-11T19:34:45.353Z,89.60
2023-04-11T19:37:11.885Z,90.70
2023-04-11T19:39:38.666Z,89.20
2023-04-11T19:42:05.256Z,89.40
2023-04-11T19:44:31.856Z,88.20
2023-04-11T19:46:58.402Z,88.60
2023-04-11T19:49:24.956Z,89.30
2023-04-11T19:51:51.658Z,89.40
2023-04-11T19:54:18.228Z,89.90
2023-04-11T19:56:44.818Z,89.00
2023-04-11T19:59:11.401Z,88.00
2023-04-11T20:01:38.131Z,86.80
2023-04-11T20:04:04.992Z,87.80
2023-04-11T20:06:31.645Z,85.40
2023-04-11T20:08:59.247Z,86.30
2023-04-11T20:11:27.396Z,86.30
2023-04-11T20:13:55.803Z,87.30
2023-04-11T20:16:22.690Z,87.60
2023-04-11T20:18:49.273Z,88.10
2023-04-11T20:21:15.960Z,85.80
2023-04-11T20:23:42.509Z,84.80
2023-04-11T20:26:09.091Z,89.20
2023-04-11T20:28:35.625Z,89.70
2023-04-11T20:31:02.230Z,89.30
2023-04-11T20:33:28.904Z,88.50
2023-04-11T20:35:55.503Z,89.20
2023-04-11T20:38:22.098Z,90.40
2023-04-11T20:40:48.702Z,90.40
2023-04-11T20:43:15.253Z,89.80
2023-04-11T20:45:41.838Z,89.80
2023-04-11T20:48:08.428Z,90.10
2023-04-11T20:50:35.060Z,87.40
2023-04-11T20:53:01.606Z,87.40
2023-04-11T20:55:28.161Z,90.20
2023-04-11T20:57:54.753Z,91.20
2023-04-11T21:00:21.324Z,91.20
2023-04-11T21:02:48.010Z,90.30
2023-04-11T21:05:14.646Z,91.00
2023-04-11T21:07:41.841Z,91.80
2023-04-11T21:10:08.412Z,92.10
2023-04-11T21:12:34.985Z,91.40
2023-04-11T21:15:01.557Z,90.70
2023-04-11T21:17:28.177Z,90.60
2023-04-11T21:19:54.750Z,90.60
2023-04-11T21:22:21.293Z,91.60
2023-04-11T21:24:47.849Z,91.10
2023-04-11T21:27:14.441Z,91.60
2023-04-11T21:29:41.048Z,91.50
2023-04-11T21:32:07.768Z,91.90
2023-04-11T21:34:34.309Z,91.30
2023-04-11T21:37:01.002Z,91.40
2023-04-11T21:39:27.580Z,91.60
2023-04-11T21:41:54.210Z,91.70
2023-04-11T21:44:20.824Z,91.80
2023-04-11T21:46:47.406Z,91.80
2023-04-11T21:49:13.985Z,91.30
2023-04-11T21:51:40.556Z,91.20
2023-04-11T21:54:07.156Z,91.30
2023-04-11T21:56:33.730Z,91.20
2023-04-11T21:59:00.263Z,91.70
2023-04-11T22:01:27.001Z,91.00
2023-04-11T22:03:53.817Z,91.20
2023-04-11T22:06:20.540Z,91.80
2023-04-11T22:08:47.128Z,92.00
2023-04-11T22:11:13.677Z,92.20
2023-04-11T22:13:40.220Z,92.10
2023-04-11T22:16:06.817Z,92.30
2023-04-11T22:18:34.166Z,91.90
2023-04-11T22:21:01.458Z,92.20
2023-04-11T22:23:28.167Z,91.70
2023-04-11T22:25:54.691Z,92.20
2023-04-11T22:28:21.589Z,92.20
2023-04-11T22:30:48.194Z,92.40
2023-04-11T22:33:14.792Z,92.50
2023-04-11T22:35:41.382Z,92.20
2023-04-11T22:38:07.948Z,92.80
2023-04-11T22:40:34.514Z,93.30
2023-04-11T22:43:01.154Z,93.30
2023-04-11T22:45:27.725Z,93.60
2023-04-11T22:47:54.618Z,93.60
2023-04-11T22:50:21.276Z,93.40
2023-04-11T22:52:47.832Z,93.60
2023-04-11T22:55:14.392Z,94.00
2023-04-11T22:57:41.001Z,93.50
2023-04-11T23:00:07.602Z,93.50
2023-04-11T23:02:34.385Z,94.20
2023-04-11T23:05:01.068Z,94.00
2023-04-11T23:07:27.710Z,94.80
2023-04-11T23:09:54.265Z,95.30
2023-04-11T23:12:20.814Z,95.40
2023-04-11T23:14:47.366Z,95.40
2023-04-11T23:17:13.977Z,95.70
2023-04-11T23:19:40.534Z,94.60
2023-04-11T23:22:07.061Z,94.20
2023-04-11T23:24:33.641Z,95.00
2023-04-11T23:27:00.193Z,94.90
2023-04-11T23:29:26.752Z,95.40
2023-04-11T23:31:53.286Z,95.80
2023-04-11T23:34:19.896Z,96.10
2023-04-11T23:36:46.513Z,96.10
2023-04-11T23:39:13.128Z,96.50
2023-04-11T23:41:39.696Z,96.30
2023-04-11T23:44:06.274Z,95.50
2023-04-11T23:46:32.904Z,95.60
2023-04-11T23:48:59.538Z,96.10
2023-04-11T23:51:26.212Z,96.00
2023-04-11T23:53:52.821Z,96.00
2023-04-11T23:56:19.716Z,95.70
2023-04-11T23:58:46.314Z,95.50
